sensor_id;sensor_type;location;lat;lon;timestamp;P1;durP1;ratioP1;P2;durP2;ratioP2
64598;SDS011;51008;51.504;11.548;2023-05-17T00:00:03;9.55;;;2.88;;
64598;SDS011;51008;51.504;11.548;2023-05-17T00:05:05;13.32;;;3.35;;
64598;SDS011;51008;51.504;11.548;2023-05-17T00:10:07;11.45;;;2.78;;
64598;SDS011;51008;51.504;11.548;2023-05-17T00:15:08;15.13;;;2.88;;
64598;SDS011;51008;51.504;11.548;2023-05-17T00:20:09;9.15;;;2.92;;
64598;SDS011;51008;51.504;11.548;2023-05-17T00:25:11;10.82;;;2.67;;
64598;SDS011;51008;51.504;11.548;2023-05-17T00:30:12;11.07;;;3.08;;
64598;SDS011;51008;51.504;11.548;2023-05-17T00:35:13;10.68;;;2.88;;
64598;SDS011;51008;51.504;11.548;2023-05-17T00:40:14;12.23;;;3.38;;
64598;SDS011;51008;51.504;11.548;2023-05-17T00:45:15;11.85;;;3.03;;
64598;SDS011;51008;51.504;11.548;2023-05-17T00:50:16;12.52;;;3.60;;
64598;SDS011;51008;51.504;11.548;2023-05-17T00:55:17;10.48;;;3.55;;
64598;SDS011;51008;51.504;11.548;2023-05-17T01:00:18;14.23;;;3.88;;
64598;SDS011;51008;51.504;11.548;2023-05-17T01:05:19;11.80;;;3.55;;
64598;SDS011;51008;51.504;11.548;2023-05-17T01:10:22;14.00;;;3.92;;
64598;SDS011;51008;51.504;11.548;2023-05-17T01:15:30;11.85;;;3.08;;
64598;SDS011;51008;51.504;11.548;2023-05-17T01:20:40;17.63;;;3.78;;
64598;SDS011;51008;51.504;11.548;2023-05-17T01:25:51;11.35;;;3.05;;
64598;SDS011;51008;51.504;11.548;2023-05-17T01:30:55;15.13;;;3.75;;
64598;SDS011;51008;51.504;11.548;2023-05-17T01:35:59;15.10;;;3.95;;
64598;SDS011;51008;51.504;11.548;2023-05-17T01:41:04;9.82;;;3.25;;
64598;SDS011;51008;51.504;11.548;2023-05-17T01:51:18;11.85;;;3.80;;
64598;SDS011;51008;51.504;11.548;2023-05-17T01:56:26;14.25;;;3.60;;
64598;SDS011;51008;51.504;11.548;2023-05-17T02:01:33;9.65;;;2.90;;
64598;SDS011;51008;51.504;11.548;2023-05-17T02:06:35;11.32;;;3.92;;
64598;SDS011;51008;51.504;11.548;2023-05-17T02:11:36;13.00;;;3.80;;
64598;SDS011;51008;51.504;11.548;2023-05-17T02:16:37;13.35;;;3.45;;
64598;SDS011;51008;51.504;11.548;2023-05-17T02:21:38;21.33;;;5.70;;
64598;SDS011;51008;51.504;11.548;2023-05-17T02:26:39;17.75;;;4.57;;
64598;SDS011;51008;51.504;11.548;2023-05-17T02:31:40;21.83;;;3.75;;
64598;SDS011;51008;51.504;11.548;2023-05-17T02:36:41;16.60;;;4.15;;
64598;SDS011;51008;51.504;11.548;2023-05-17T02:41:42;16.27;;;3.67;;
64598;SDS011;51008;51.504;11.548;2023-05-17T02:46:43;12.70;;;3.60;;
64598;SDS011;51008;51.504;11.548;2023-05-17T02:51:46;15.80;;;3.45;;
64598;SDS011;51008;51.504;11.548;2023-05-17T02:56:47;17.77;;;4.03;;
64598;SDS011;51008;51.504;11.548;2023-05-17T03:01:49;12.95;;;3.70;;
64598;SDS011;51008;51.504;11.548;2023-05-17T03:06:54;12.40;;;4.00;;
64598;SDS011;51008;51.504;11.548;2023-05-17T03:11:55;10.07;;;3.38;;
64598;SDS011;51008;51.504;11.548;2023-05-17T03:17:00;10.65;;;3.67;;
64598;SDS011;51008;51.504;11.548;2023-05-17T03:22:02;11.55;;;3.70;;
64598;SDS011;51008;51.504;11.548;2023-05-17T03:27:06;11.40;;;4.43;;
64598;SDS011;51008;51.504;11.548;2023-05-17T03:32:07;14.18;;;4.20;;
64598;SDS011;51008;51.504;11.548;2023-05-17T03:37:08;20.63;;;4.00;;
64598;SDS011;51008;51.504;11.548;2023-05-17T03:42:10;14.85;;;4.25;;
64598;SDS011;51008;51.504;11.548;2023-05-17T03:47:11;24.42;;;4.38;;
64598;SDS011;51008;51.504;11.548;2023-05-17T03:52:12;18.05;;;4.63;;
64598;SDS011;51008;51.504;11.548;2023-05-17T03:57:13;13.15;;;3.67;;
64598;SDS011;51008;51.504;11.548;2023-05-17T04:02:15;12.90;;;4.00;;
64598;SDS011;51008;51.504;11.548;2023-05-17T04:07:16;12.65;;;4.35;;
64598;SDS011;51008;51.504;11.548;2023-05-17T04:12:17;13.38;;;3.67;;
64598;SDS011;51008;51.504;11.548;2023-05-17T04:17:18;18.25;;;4.82;;
64598;SDS011;51008;51.504;11.548;2023-05-17T04:22:21;12.82;;;3.95;;
64598;SDS011;51008;51.504;11.548;2023-05-17T04:27:23;16.33;;;3.60;;
64598;SDS011;51008;51.504;11.548;2023-05-17T04:32:24;15.70;;;3.88;;
64598;SDS011;51008;51.504;11.548;2023-05-17T04:37:25;18.92;;;4.22;;
64598;SDS011;51008;51.504;11.548;2023-05-17T04:42:30;16.95;;;5.10;;
64598;SDS011;51008;51.504;11.548;2023-05-17T04:47:33;17.42;;;4.18;;
64598;SDS011;51008;51.504;11.548;2023-05-17T04:52:34;21.60;;;4.50;;
64598;SDS011;51008;51.504;11.548;2023-05-17T04:57:36;19.08;;;4.82;;
64598;SDS011;51008;51.504;11.548;2023-05-17T05:02:39;17.80;;;4.57;;
64598;SDS011;51008;51.504;11.548;2023-05-17T05:07:40;14.68;;;5.68;;
64598;SDS011;51008;51.504;11.548;2023-05-17T05:12:43;20.35;;;5.97;;
64598;SDS011;51008;51.504;11.548;2023-05-17T05:17:45;16.10;;;5.45;;
64598;SDS011;51008;51.504;11.548;2023-05-17T05:22:48;23.67;;;6.00;;
64598;SDS011;51008;51.504;11.548;2023-05-17T05:27:51;23.70;;;6.80;;
64598;SDS011;51008;51.504;11.548;2023-05-17T05:32:52;16.45;;;5.40;;
64598;SDS011;51008;51.504;11.548;2023-05-17T05:37:54;15.32;;;4.47;;
64598;SDS011;51008;51.504;11.548;2023-05-17T05:42:55;19.75;;;4.25;;
64598;SDS011;51008;51.504;11.548;2023-05-17T05:47:56;20.48;;;4.00;;
64598;SDS011;51008;51.504;11.548;2023-05-17T05:52:58;14.95;;;3.85;;
64598;SDS011;51008;51.504;11.548;2023-05-17T05:57:59;15.07;;;3.88;;
64598;SDS011;51008;51.504;11.548;2023-05-17T06:03:00;18.88;;;3.75;;
64598;SDS011;51008;51.504;11.548;2023-05-17T06:08:01;18.88;;;3.88;;
64598;SDS011;51008;51.504;11.548;2023-05-17T06:13:02;26.95;;;4.05;;
64598;SDS011;51008;51.504;11.548;2023-05-17T06:18:03;21.00;;;4.50;;
64598;SDS011;51008;51.504;11.548;2023-05-17T06:23:04;18.98;;;5.13;;
64598;SDS011;51008;51.504;11.548;2023-05-17T06:28:05;18.85;;;4.88;;
64598;SDS011;51008;51.504;11.548;2023-05-17T06:33:06;22.13;;;5.13;;
64598;SDS011;51008;51.504;11.548;2023-05-17T06:38:07;25.80;;;5.63;;
64598;SDS011;51008;51.504;11.548;2023-05-17T06:43:08;20.17;;;5.90;;
64598;SDS011;51008;51.504;11.548;2023-05-17T06:48:09;22.80;;;5.70;;
64598;SDS011;51008;51.504;11.548;2023-05-17T06:53:10;21.90;;;5.90;;
64598;SDS011;51008;51.504;11.548;2023-05-17T06:58:11;19.42;;;5.97;;
64598;SDS011;51008;51.504;11.548;2023-05-17T07:03:12;21.20;;;6.18;;
64598;SDS011;51008;51.504;11.548;2023-05-17T07:08:13;27.98;;;6.50;;
64598;SDS011;51008;51.504;11.548;2023-05-17T07:13:14;28.77;;;6.65;;
64598;SDS011;51008;51.504;11.548;2023-05-17T07:18:15;22.98;;;5.47;;
64598;SDS011;51008;51.504;11.548;2023-05-17T07:23:16;22.90;;;5.80;;
64598;SDS011;51008;51.504;11.548;2023-05-17T07:28:17;17.13;;;5.47;;
64598;SDS011;51008;51.504;11.548;2023-05-17T07:33:18;17.02;;;3.80;;
64598;SDS011;51008;51.504;11.548;2023-05-17T07:38:19;18.25;;;3.95;;
64598;SDS011;51008;51.504;11.548;2023-05-17T07:43:20;19.58;;;4.10;;
64598;SDS011;51008;51.504;11.548;2023-05-17T07:48:21;18.30;;;3.42;;
64598;SDS011;51008;51.504;11.548;2023-05-17T07:53:23;16.50;;;3.17;;
64598;SDS011;51008;51.504;11.548;2023-05-17T07:58:25;22.60;;;4.32;;
64598;SDS011;51008;51.504;11.548;2023-05-17T08:03:27;23.00;;;3.90;;
64598;SDS011;51008;51.504;11.548;2023-05-17T08:08:28;19.17;;;4.03;;
64598;SDS011;51008;51.504;11.548;2023-05-17T08:13:29;19.25;;;3.97;;
64598;SDS011;51008;51.504;11.548;2023-05-17T08:18:30;16.45;;;2.85;;
64598;SDS011;51008;51.504;11.548;2023-05-17T08:23:31;14.60;;;3.50;;
64598;SDS011;51008;51.504;11.548;2023-05-17T08:28:32;18.13;;;3.08;;
64598;SDS011;51008;51.504;11.548;2023-05-17T08:33:33;17.67;;;3.20;;
64598;SDS011;51008;51.504;11.548;2023-05-17T08:38:34;16.88;;;3.20;;
64598;SDS011;51008;51.504;11.548;2023-05-17T08:43:35;14.35;;;3.00;;
64598;SDS011;51008;51.504;11.548;2023-05-17T08:48:36;18.75;;;3.35;;
64598;SDS011;51008;51.504;11.548;2023-05-17T08:53:38;19.90;;;3.35;;
64598;SDS011;51008;51.504;11.548;2023-05-17T08:58:39;18.38;;;3.20;;
64598;SDS011;51008;51.504;11.548;2023-05-17T09:03:43;19.40;;;3.38;;
64598;SDS011;51008;51.504;11.548;2023-05-17T09:08:48;14.32;;;3.00;;
64598;SDS011;51008;51.504;11.548;2023-05-17T09:13:50;15.90;;;2.83;;
64598;SDS011;51008;51.504;11.548;2023-05-17T09:18:55;16.48;;;3.58;;
64598;SDS011;51008;51.504;11.548;2023-05-17T09:23:57;15.93;;;2.92;;
64598;SDS011;51008;51.504;11.548;2023-05-17T09:28:59;14.65;;;3.38;;
64598;SDS011;51008;51.504;11.548;2023-05-17T09:34:00;18.63;;;3.13;;
64598;SDS011;51008;51.504;11.548;2023-05-17T09:39:02;19.52;;;3.05;;
64598;SDS011;51008;51.504;11.548;2023-05-17T09:44:07;15.37;;;2.80;;
64598;SDS011;51008;51.504;11.548;2023-05-17T09:49:08;16.83;;;2.80;;
64598;SDS011;51008;51.504;11.548;2023-05-17T09:54:09;14.63;;;2.35;;
64598;SDS011;51008;51.504;11.548;2023-05-17T09:59:12;12.07;;;2.83;;
64598;SDS011;51008;51.504;11.548;2023-05-17T10:04:16;19.08;;;3.15;;
64598;SDS011;51008;51.504;11.548;2023-05-17T10:09:20;16.17;;;2.50;;
64598;SDS011;51008;51.504;11.548;2023-05-17T10:19:33;11.32;;;2.28;;
64598;SDS011;51008;51.504;11.548;2023-05-17T10:24:35;12.10;;;2.33;;
64598;SDS011;51008;51.504;11.548;2023-05-17T10:29:37;13.38;;;3.15;;
64598;SDS011;51008;51.504;11.548;2023-05-17T10:34:39;9.25;;;2.03;;
64598;SDS011;51008;51.504;11.548;2023-05-17T10:39:40;16.48;;;2.40;;
64598;SDS011;51008;51.504;11.548;2023-05-17T10:44:41;12.68;;;2.00;;
64598;SDS011;51008;51.504;11.548;2023-05-17T10:49:43;12.27;;;2.50;;
64598;SDS011;51008;51.504;11.548;2023-05-17T10:54:46;8.30;;;1.75;;
64598;SDS011;51008;51.504;11.548;2023-05-17T10:59:54;10.10;;;2.17;;
64598;SDS011;51008;51.504;11.548;2023-05-17T11:04:59;13.90;;;2.38;;
64598;SDS011;51008;51.504;11.548;2023-05-17T11:15:04;12.27;;;2.05;;
64598;SDS011;51008;51.504;11.548;2023-05-17T11:25:10;13.75;;;2.47;;
64598;SDS011;51008;51.504;11.548;2023-05-17T11:35:36;15.68;;;2.60;;
64598;SDS011;51008;51.504;11.548;2023-05-17T11:40:38;12.68;;;2.90;;
64598;SDS011;51008;51.504;11.548;2023-05-17T11:45:50;9.52;;;2.10;;
64598;SDS011;51008;51.504;11.548;2023-05-17T11:50:52;9.60;;;2.88;;
64598;SDS011;51008;51.504;11.548;2023-05-17T11:55:54;14.70;;;2.63;;
64598;SDS011;51008;51.504;11.548;2023-05-17T12:00:57;12.35;;;2.30;;
64598;SDS011;51008;51.504;11.548;2023-05-17T12:06:02;11.07;;;2.92;;
64598;SDS011;51008;51.504;11.548;2023-05-17T12:11:06;11.55;;;2.45;;
64598;SDS011;51008;51.504;11.548;2023-05-17T12:16:11;13.95;;;2.45;;
64598;SDS011;51008;51.504;11.548;2023-05-17T12:21:13;18.83;;;3.28;;
64598;SDS011;51008;51.504;11.548;2023-05-17T12:31:16;11.48;;;2.60;;
64598;SDS011;51008;51.504;11.548;2023-05-17T12:36:20;16.42;;;2.85;;
64598;SDS011;51008;51.504;11.548;2023-05-17T12:41:22;18.15;;;2.97;;
64598;SDS011;51008;51.504;11.548;2023-05-17T12:46:24;19.40;;;3.08;;
64598;SDS011;51008;51.504;11.548;2023-05-17T12:51:27;15.53;;;2.73;;
64598;SDS011;51008;51.504;11.548;2023-05-17T12:56:28;9.60;;;2.22;;
64598;SDS011;51008;51.504;11.548;2023-05-17T13:01:43;14.05;;;2.47;;
64598;SDS011;51008;51.504;11.548;2023-05-17T13:06:54;15.98;;;2.72;;
64598;SDS011;51008;51.504;11.548;2023-05-17T13:11:58;14.70;;;2.50;;
64598;SDS011;51008;51.504;11.548;2023-05-17T13:16:59;13.23;;;2.67;;
64598;SDS011;51008;51.504;11.548;2023-05-17T13:22:02;15.20;;;2.55;;
64598;SDS011;51008;51.504;11.548;2023-05-17T13:27:04;18.45;;;2.58;;
64598;SDS011;51008;51.504;11.548;2023-05-17T13:32:06;14.20;;;2.70;;
64598;SDS011;51008;51.504;11.548;2023-05-17T13:37:08;11.57;;;2.87;;
64598;SDS011;51008;51.504;11.548;2023-05-17T13:42:10;10.88;;;3.00;;
64598;SDS011;51008;51.504;11.548;2023-05-17T13:47:12;22.27;;;3.30;;
64598;SDS011;51008;51.504;11.548;2023-05-17T13:52:13;13.82;;;3.08;;
64598;SDS011;51008;51.504;11.548;2023-05-17T13:57:14;14.98;;;3.15;;
64598;SDS011;51008;51.504;11.548;2023-05-17T14:02:15;14.80;;;3.63;;
64598;SDS011;51008;51.504;11.548;2023-05-17T14:07:16;17.33;;;2.70;;
64598;SDS011;51008;51.504;11.548;2023-05-17T14:12:17;17.23;;;3.40;;
64598;SDS011;51008;51.504;11.548;2023-05-17T14:17:18;13.85;;;2.90;;
64598;SDS011;51008;51.504;11.548;2023-05-17T14:22:18;15.75;;;3.25;;
64598;SDS011;51008;51.504;11.548;2023-05-17T14:27:19;17.38;;;2.95;;
64598;SDS011;51008;51.504;11.548;2023-05-17T14:32:20;27.75;;;3.67;;
64598;SDS011;51008;51.504;11.548;2023-05-17T14:37:21;16.27;;;2.70;;
64598;SDS011;51008;51.504;11.548;2023-05-17T14:42:22;14.70;;;3.35;;
64598;SDS011;51008;51.504;11.548;2023-05-17T14:47:23;18.90;;;2.78;;
64598;SDS011;51008;51.504;11.548;2023-05-17T14:52:24;15.43;;;2.40;;
64598;SDS011;51008;51.504;11.548;2023-05-17T14:57:25;28.30;;;3.25;;
64598;SDS011;51008;51.504;11.548;2023-05-17T15:02:26;11.32;;;2.33;;
64598;SDS011;51008;51.504;11.548;2023-05-17T15:07:27;15.88;;;3.10;;
64598;SDS011;51008;51.504;11.548;2023-05-17T15:12:28;15.70;;;2.97;;
64598;SDS011;51008;51.504;11.548;2023-05-17T15:17:29;13.70;;;2.80;;
64598;SDS011;51008;51.504;11.548;2023-05-17T15:22:30;13.18;;;2.20;;
64598;SDS011;51008;51.504;11.548;2023-05-17T15:27:31;14.32;;;2.55;;
64598;SDS011;51008;51.504;11.548;2023-05-17T15:32:32;13.00;;;2.90;;
64598;SDS011;51008;51.504;11.548;2023-05-17T15:37:33;16.00;;;2.58;;
64598;SDS011;51008;51.504;11.548;2023-05-17T15:42:34;13.20;;;2.40;;
64598;SDS011;51008;51.504;11.548;2023-05-17T15:47:35;12.07;;;2.10;;
64598;SDS011;51008;51.504;11.548;2023-05-17T15:52:36;21.48;;;3.17;;
64598;SDS011;51008;51.504;11.548;2023-05-17T15:57:37;14.90;;;3.08;;
64598;SDS011;51008;51.504;11.548;2023-05-17T16:02:38;11.45;;;2.90;;
64598;SDS011;51008;51.504;11.548;2023-05-17T16:07:39;15.55;;;2.45;;
64598;SDS011;51008;51.504;11.548;2023-05-17T16:12:40;15.98;;;2.55;;
64598;SDS011;51008;51.504;11.548;2023-05-17T16:17:41;12.73;;;2.33;;
64598;SDS011;51008;51.504;11.548;2023-05-17T16:22:42;19.55;;;3.90;;
64598;SDS011;51008;51.504;11.548;2023-05-17T16:27:43;14.65;;;2.70;;
64598;SDS011;51008;51.504;11.548;2023-05-17T16:32:45;14.88;;;2.50;;
64598;SDS011;51008;51.504;11.548;2023-05-17T16:37:47;14.85;;;2.42;;
64598;SDS011;51008;51.504;11.548;2023-05-17T16:42:48;14.48;;;3.35;;
64598;SDS011;51008;51.504;11.548;2023-05-17T16:47:49;14.55;;;2.47;;
64598;SDS011;51008;51.504;11.548;2023-05-17T16:52:50;13.50;;;2.25;;
64598;SDS011;51008;51.504;11.548;2023-05-17T16:57:51;10.63;;;2.20;;
64598;SDS011;51008;51.504;11.548;2023-05-17T17:02:52;10.02;;;2.42;;
64598;SDS011;51008;51.504;11.548;2023-05-17T17:07:53;6.82;;;1.83;;
64598;SDS011;51008;51.504;11.548;2023-05-17T17:12:54;11.00;;;2.38;;
64598;SDS011;51008;51.504;11.548;2023-05-17T17:17:55;14.25;;;2.45;;
64598;SDS011;51008;51.504;11.548;2023-05-17T17:22:56;15.02;;;2.10;;
64598;SDS011;51008;51.504;11.548;2023-05-17T17:27:57;6.70;;;2.00;;
64598;SDS011;51008;51.504;11.548;2023-05-17T17:32:58;14.27;;;2.40;;
64598;SDS011;51008;51.504;11.548;2023-05-17T17:37:59;14.05;;;2.10;;
64598;SDS011;51008;51.504;11.548;2023-05-17T17:43:00;12.55;;;2.15;;
64598;SDS011;51008;51.504;11.548;2023-05-17T17:48:01;11.60;;;2.40;;
64598;SDS011;51008;51.504;11.548;2023-05-17T17:53:02;14.43;;;2.25;;
64598;SDS011;51008;51.504;11.548;2023-05-17T17:58:03;11.35;;;2.08;;
64598;SDS011;51008;51.504;11.548;2023-05-17T18:03:04;9.85;;;2.72;;
64598;SDS011;51008;51.504;11.548;2023-05-17T18:08:05;18.23;;;3.00;;
64598;SDS011;51008;51.504;11.548;2023-05-17T18:13:06;16.17;;;3.33;;
64598;SDS011;51008;51.504;11.548;2023-05-17T18:18:07;10.60;;;2.20;;
64598;SDS011;51008;51.504;11.548;2023-05-17T18:23:08;13.48;;;3.33;;
64598;SDS011;51008;51.504;11.548;2023-05-17T18:28:09;13.55;;;2.53;;
64598;SDS011;51008;51.504;11.548;2023-05-17T18:33:10;10.70;;;2.40;;
64598;SDS011;51008;51.504;11.548;2023-05-17T18:38:11;9.07;;;2.47;;
64598;SDS011;51008;51.504;11.548;2023-05-17T18:43:12;9.18;;;2.65;;
64598;SDS011;51008;51.504;11.548;2023-05-17T18:48:13;13.45;;;2.40;;
64598;SDS011;51008;51.504;11.548;2023-05-17T18:53:14;10.15;;;2.15;;
64598;SDS011;51008;51.504;11.548;2023-05-17T18:58:15;11.18;;;2.20;;
64598;SDS011;51008;51.504;11.548;2023-05-17T19:03:16;10.48;;;2.25;;
64598;SDS011;51008;51.504;11.548;2023-05-17T19:08:17;9.30;;;2.17;;
64598;SDS011;51008;51.504;11.548;2023-05-17T19:13:18;10.65;;;1.95;;
64598;SDS011;51008;51.504;11.548;2023-05-17T19:18:19;11.65;;;2.80;;
64598;SDS011;51008;51.504;11.548;2023-05-17T19:23:20;11.88;;;2.42;;
64598;SDS011;51008;51.504;11.548;2023-05-17T19:28:21;9.25;;;2.60;;
64598;SDS011;51008;51.504;11.548;2023-05-17T19:33:22;11.70;;;3.13;;
64598;SDS011;51008;51.504;11.548;2023-05-17T19:38:23;12.55;;;3.55;;
64598;SDS011;51008;51.504;11.548;2023-05-17T19:43:24;12.88;;;2.97;;
64598;SDS011;51008;51.504;11.548;2023-05-17T19:48:25;11.23;;;2.65;;
64598;SDS011;51008;51.504;11.548;2023-05-17T19:53:26;10.32;;;2.40;;
64598;SDS011;51008;51.504;11.548;2023-05-17T19:58:27;14.23;;;2.33;;
64598;SDS011;51008;51.504;11.548;2023-05-17T20:03:28;11.63;;;2.83;;
64598;SDS011;51008;51.504;11.548;2023-05-17T20:08:29;10.77;;;2.45;;
64598;SDS011;51008;51.504;11.548;2023-05-17T20:13:30;8.65;;;2.60;;
64598;SDS011;51008;51.504;11.548;2023-05-17T20:18:31;16.58;;;3.30;;
64598;SDS011;51008;51.504;11.548;2023-05-17T20:23:32;9.90;;;2.80;;
64598;SDS011;51008;51.504;11.548;2023-05-17T20:28:33;9.57;;;2.72;;
64598;SDS011;51008;51.504;11.548;2023-05-17T20:33:34;12.68;;;2.45;;
64598;SDS011;51008;51.504;11.548;2023-05-17T20:38:36;8.20;;;2.38;;
64598;SDS011;51008;51.504;11.548;2023-05-17T20:43:37;9.15;;;2.28;;
64598;SDS011;51008;51.504;11.548;2023-05-17T20:48:38;9.50;;;2.60;;
64598;SDS011;51008;51.504;11.548;2023-05-17T20:53:40;17.00;;;2.42;;
64598;SDS011;51008;51.504;11.548;2023-05-17T20:58:41;13.82;;;2.97;;
64598;SDS011;51008;51.504;11.548;2023-05-17T21:03:42;11.57;;;2.40;;
64598;SDS011;51008;51.504;11.548;2023-05-17T21:08:43;13.52;;;2.63;;
64598;SDS011;51008;51.504;11.548;2023-05-17T21:13:44;9.25;;;2.50;;
64598;SDS011;51008;51.504;11.548;2023-05-17T21:18:45;11.90;;;2.90;;
64598;SDS011;51008;51.504;11.548;2023-05-17T21:23:46;15.25;;;2.53;;
64598;SDS011;51008;51.504;11.548;2023-05-17T21:28:47;13.25;;;2.30;;
64598;SDS011;51008;51.504;11.548;2023-05-17T21:33:48;7.90;;;2.20;;
64598;SDS011;51008;51.504;11.548;2023-05-17T21:38:49;22.00;;;3.95;;
64598;SDS011;51008;51.504;11.548;2023-05-17T21:43:50;8.90;;;2.20;;
64598;SDS011;51008;51.504;11.548;2023-05-17T21:48:51;8.68;;;2.70;;
64598;SDS011;51008;51.504;11.548;2023-05-17T21:53:52;13.35;;;3.42;;
64598;SDS011;51008;51.504;11.548;2023-05-17T21:58:53;18.35;;;4.07;;
64598;SDS011;51008;51.504;11.548;2023-05-17T22:03:53;17.65;;;3.67;;
64598;SDS011;51008;51.504;11.548;2023-05-17T22:08:54;18.50;;;4.25;;
64598;SDS011;51008;51.504;11.548;2023-05-17T22:13:55;10.93;;;2.92;;
64598;SDS011;51008;51.504;11.548;2023-05-17T22:18:56;11.27;;;2.67;;
64598;SDS011;51008;51.504;11.548;2023-05-17T22:23:58;9.98;;;3.03;;
64598;SDS011;51008;51.504;11.548;2023-05-17T22:28:59;13.77;;;2.50;;
64598;SDS011;51008;51.504;11.548;2023-05-17T22:33:59;12.93;;;2.50;;
64598;SDS011;51008;51.504;11.548;2023-05-17T22:39:00;12.38;;;2.65;;
64598;SDS011;51008;51.504;11.548;2023-05-17T22:44:01;12.35;;;2.60;;
64598;SDS011;51008;51.504;11.548;2023-05-17T22:49:02;12.80;;;2.78;;
64598;SDS011;51008;51.504;11.548;2023-05-17T22:54:03;15.13;;;2.90;;
64598;SDS011;51008;51.504;11.548;2023-05-17T22:59:04;17.20;;;2.70;;
64598;SDS011;51008;51.504;11.548;2023-05-17T23:04:05;8.48;;;2.22;;
64598;SDS011;51008;51.504;11.548;2023-05-17T23:09:06;18.13;;;3.38;;
64598;SDS011;51008;51.504;11.548;2023-05-17T23:14:07;11.60;;;2.55;;
64598;SDS011;51008;51.504;11.548;2023-05-17T23:19:08;15.05;;;2.88;;
64598;SDS011;51008;51.504;11.548;2023-05-17T23:24:09;11.05;;;2.55;;
64598;SDS011;51008;51.504;11.548;2023-05-17T23:29:10;11.40;;;3.30;;
64598;SDS011;51008;51.504;11.548;2023-05-17T23:34:11;10.23;;;2.58;;
64598;SDS011;51008;51.504;11.548;2023-05-17T23:39:12;11.05;;;2.80;;
64598;SDS011;51008;51.504;11.548;2023-05-17T23:44:13;7.30;;;2.83;;
64598;SDS011;51008;51.504;11.548;2023-05-17T23:49:13;13.07;;;2.88;;
64598;SDS011;51008;51.504;11.548;2023-05-17T23:54:14;12.73;;;3.00;;
64598;SDS011;51008;51.504;11.548;2023-05-17T23:59:15;9.57;;;2.67;;
